createdAt,value
2022-10-10T00:00:50.422Z,8.05
2022-10-10T00:03:20.203Z,8.04
2022-10-10T00:05:48.351Z,8.03
2022-10-10T00:08:15.453Z,7.82
2022-10-10T00:10:42.432Z,7.88
2022-10-10T00:13:09.722Z,7.98
2022-10-10T00:15:36.807Z,7.97
2022-10-10T00:18:04.505Z,7.84
2022-10-10T00:20:32.012Z,8.00
2022-10-10T00:22:59.217Z,7.99
2022-10-10T00:25:28.192Z,7.97
2022-10-10T00:27:55.803Z,7.97
2022-10-10T00:30:22.918Z,7.66
2022-10-10T00:32:50.255Z,7.94
2022-10-10T00:35:17.434Z,7.90
2022-10-10T00:37:44.469Z,7.85
2022-10-10T00:40:12.637Z,7.72
2022-10-10T00:42:39.675Z,7.51
2022-10-10T00:45:36.065Z,7.55
2022-10-10T00:48:05.484Z,7.69
2022-10-10T00:50:35.557Z,7.73
2022-10-10T00:53:05.877Z,7.73
2022-10-10T00:55:33.326Z,7.72
2022-10-10T00:58:01.649Z,7.69
2022-10-10T01:00:28.929Z,7.75
2022-10-10T01:02:56.202Z,7.73
2022-10-10T01:05:23.579Z,7.75
2022-10-10T01:07:50.957Z,7.61
2022-10-10T01:10:20.862Z,7.35
2022-10-10T01:12:48.034Z,7.73
2022-10-10T01:15:38.399Z,7.71
2022-10-10T01:18:23.800Z,7.70
2022-10-10T01:20:58.502Z,7.69
2022-10-10T01:23:50.495Z,7.64
2022-10-10T01:26:29.443Z,7.59
2022-10-10T01:29:14.854Z,7.60
2022-10-10T01:31:47.001Z,7.56
2022-10-10T01:34:14.173Z,7.53
2022-10-10T01:36:48.291Z,7.54
2022-10-10T01:39:32.103Z,7.35
2022-10-10T01:42:09.895Z,6.70
2022-10-10T01:44:36.916Z,7.22
2022-10-10T01:47:04.156Z,7.47
2022-10-10T01:49:33.012Z,7.32
2022-10-10T01:52:17.268Z,7.45
2022-10-10T01:54:47.402Z,7.44
2022-10-10T01:57:24.856Z,7.44
2022-10-10T02:00:01.192Z,7.43
2022-10-10T02:02:50.645Z,7.41
2022-10-10T02:05:36.437Z,7.45
2022-10-10T02:08:14.789Z,7.42
2022-10-10T02:10:49.092Z,7.37
2022-10-10T02:13:18.388Z,7.24
2022-10-10T02:15:48.854Z,7.34
2022-10-10T02:18:20.671Z,7.37
2022-10-10T02:20:49.144Z,7.31
2022-10-10T02:23:20.212Z,7.36
2022-10-10T02:25:52.987Z,7.03
2022-10-10T02:28:20.208Z,7.33
2022-10-10T02:30:52.562Z,7.30
2022-10-10T02:33:31.192Z,7.06
2022-10-10T02:35:59.727Z,7.24
2022-10-10T02:38:29.071Z,7.26
2022-10-10T02:40:58.520Z,7.26
2022-10-10T02:43:26.372Z,7.24
2022-10-10T02:45:53.452Z,7.17
2022-10-10T02:48:20.647Z,7.17
2022-10-10T02:50:47.804Z,7.18
2022-10-10T02:53:14.837Z,7.03
2022-10-10T02:55:41.922Z,7.22
2022-10-10T02:58:08.993Z,6.99
2022-10-10T03:00:36.122Z,6.80
2022-10-10T03:03:03.291Z,7.22
2022-10-10T03:05:30.806Z,7.14
2022-10-10T03:07:57.904Z,7.13
2022-10-10T03:10:25.386Z,7.15
2022-10-10T03:12:52.809Z,6.74
2022-10-10T03:15:20.353Z,7.18
2022-10-10T03:17:47.555Z,7.09
2022-10-10T03:20:14.797Z,7.06
2022-10-10T03:22:42.005Z,7.10
2022-10-10T03:25:09.287Z,7.06
2022-10-10T03:27:36.428Z,6.89
2022-10-10T03:30:04.740Z,6.77
2022-10-10T03:32:31.891Z,6.87
2022-10-10T03:34:58.947Z,6.75
2022-10-10T03:37:25.856Z,6.16
2022-10-10T03:39:52.918Z,6.60
2022-10-10T03:42:19.920Z,6.80
2022-10-10T03:44:47.154Z,6.04
2022-10-10T03:47:14.422Z,6.63
2022-10-10T03:49:41.593Z,6.67
2022-10-10T03:52:08.680Z,6.78
2022-10-10T03:54:35.832Z,6.48
2022-10-10T03:57:02.982Z,6.71
2022-10-10T03:59:30.122Z,6.65
2022-10-10T04:01:57.197Z,6.56
2022-10-10T04:04:24.922Z,6.52
2022-10-10T04:06:52.252Z,6.53
2022-10-10T04:09:19.408Z,6.52
2022-10-10T04:11:46.483Z,6.51
2022-10-10T04:14:13.607Z,6.20
2022-10-10T04:16:40.831Z,6.06
2022-10-10T04:19:07.881Z,6.43
2022-10-10T04:21:35.351Z,6.52
2022-10-10T04:24:02.754Z,6.52
2022-10-10T04:26:29.863Z,6.37
2022-10-10T04:28:58.114Z,6.38
2022-10-10T04:31:25.196Z,6.50
2022-10-10T04:33:52.872Z,6.51
2022-10-10T04:36:20.136Z,6.43
2022-10-10T04:38:47.531Z,6.40
2022-10-10T04:41:14.801Z,6.42
2022-10-10T04:43:42.233Z,6.15
2022-10-10T04:46:09.401Z,6.49
2022-10-10T04:48:37.533Z,6.41
2022-10-10T04:51:06.033Z,6.43
2022-10-10T04:53:33.341Z,6.30
2022-10-10T04:56:00.485Z,6.40
2022-10-10T04:58:27.587Z,6.37
2022-10-10T05:00:55.906Z,6.36
2022-10-10T05:03:24.442Z,6.30
2022-10-10T05:05:51.819Z,6.34
2022-10-10T05:08:19.850Z,6.27
2022-10-10T05:10:47.954Z,6.33
2022-10-10T05:13:16.271Z,6.35
2022-10-10T05:15:43.911Z,6.28
2022-10-10T05:18:11.304Z,6.22
2022-10-10T05:20:38.362Z,6.34
2022-10-10T05:23:05.635Z,6.01
2022-10-10T05:25:32.936Z,6.10
2022-10-10T05:28:00.093Z,6.39
2022-10-10T05:30:27.353Z,6.34
2022-10-10T05:32:54.651Z,6.37
2022-10-10T05:35:21.973Z,6.35
2022-10-10T05:37:49.066Z,6.40
2022-10-10T05:40:16.205Z,6.38
2022-10-10T05:42:43.494Z,6.42
2022-10-10T05:45:11.037Z,6.18
2022-10-10T05:47:38.354Z,6.27
2022-10-10T05:50:06.509Z,6.47
2022-10-10T05:52:35.605Z,6.49
2022-10-10T05:55:02.641Z,6.32
2022-10-10T05:57:29.803Z,6.58
2022-10-10T05:59:56.813Z,6.59
2022-10-10T06:02:24.062Z,6.57
2022-10-10T06:04:51.184Z,6.64
2022-10-10T06:07:18.302Z,6.62
2022-10-10T06:09:45.556Z,6.70
2022-10-10T06:12:12.774Z,6.73
2022-10-10T06:14:40.141Z,6.75
2022-10-10T06:17:07.765Z,6.30
2022-10-10T06:19:34.962Z,6.82
2022-10-10T06:22:02.365Z,6.79
2022-10-10T06:24:30.116Z,6.88
2022-10-10T06:26:57.224Z,6.53
2022-10-10T06:29:24.282Z,6.80
2022-10-10T06:31:51.572Z,7.04
2022-10-10T06:34:18.923Z,7.04
2022-10-10T06:36:46.125Z,7.14
2022-10-10T06:39:13.145Z,7.17
2022-10-10T06:41:40.242Z,7.23
2022-10-10T06:44:10.883Z,7.24
2022-10-10T06:46:38.023Z,7.29
2022-10-10T06:49:05.504Z,7.38
2022-10-10T06:51:32.948Z,7.41
2022-10-10T06:54:00.048Z,7.48
2022-10-10T06:56:28.127Z,7.50
2022-10-10T06:58:55.932Z,7.59
2022-10-10T07:01:25.254Z,7.63
2022-10-10T07:03:52.585Z,7.59
2022-10-10T07:06:19.806Z,7.65
2022-10-10T07:08:47.082Z,7.49
2022-10-10T07:11:14.502Z,7.87
2022-10-10T07:13:41.872Z,7.87
2022-10-10T07:16:10.294Z,7.91
2022-10-10T07:18:37.951Z,8.07
2022-10-10T07:21:05.923Z,8.05
2022-10-10T07:23:33.210Z,8.15
2022-10-10T07:26:06.417Z,8.31
2022-10-10T07:28:34.023Z,8.40
2022-10-10T07:31:04.475Z,8.50
2022-10-10T07:33:32.721Z,8.59
2022-10-10T07:36:00.085Z,8.74
2022-10-10T07:38:27.293Z,8.90
2022-10-10T07:40:54.453Z,9.05
2022-10-10T07:43:21.812Z,9.19
2022-10-10T07:45:49.254Z,9.40
2022-10-10T07:48:16.869Z,9.51
2022-10-10T07:50:45.081Z,9.68
2022-10-10T07:53:12.863Z,9.38
2022-10-10T07:55:43.881Z,10.01
2022-10-10T07:58:12.231Z,10.16
2022-10-10T08:00:43.021Z,10.30
2022-10-10T08:03:12.171Z,10.41
2022-10-10T08:05:44.398Z,10.56
2022-10-10T08:08:11.783Z,10.72
2022-10-10T08:10:44.018Z,10.75
2022-10-10T08:13:11.182Z,10.92
2022-10-10T08:15:42.042Z,11.00
2022-10-10T08:18:09.317Z,11.10
2022-10-10T08:20:36.562Z,10.95
2022-10-10T08:23:03.845Z,11.18
2022-10-10T08:25:30.993Z,11.32
2022-10-10T08:27:58.215Z,11.53
2022-10-10T08:30:25.503Z,11.63
2022-10-10T08:32:52.957Z,11.37
2022-10-10T08:35:20.476Z,11.76
2022-10-10T08:37:47.682Z,11.91
2022-10-10T08:40:21.126Z,11.84
2022-10-10T08:42:53.295Z,12.18
2022-10-10T08:45:24.768Z,12.30
2022-10-10T08:47:55.362Z,12.41
2022-10-10T08:50:28.133Z,12.41
2022-10-10T08:53:03.688Z,12.44
2022-10-10T08:55:34.032Z,12.45
2022-10-10T08:58:10.452Z,12.60
2022-10-10T09:00:46.858Z,12.62
2022-10-10T09:03:30.874Z,12.66
2022-10-10T09:06:33.276Z,12.69
2022-10-10T09:09:28.206Z,12.81
2022-10-10T09:12:13.413Z,12.91
2022-10-10T09:14:46.115Z,13.00
2022-10-10T09:17:22.163Z,13.03
2022-10-10T09:20:24.667Z,12.98
2022-10-10T09:23:03.650Z,13.12
2022-10-10T09:25:57.931Z,13.02
2022-10-10T09:28:30.670Z,13.28
2022-10-10T09:31:00.313Z,13.22
2022-10-10T09:33:36.240Z,13.21
2022-10-10T09:36:09.969Z,12.85
2022-10-10T09:38:48.183Z,13.18
2022-10-10T09:41:25.897Z,13.34
2022-10-10T09:44:03.209Z,13.35
2022-10-10T09:46:30.438Z,13.30
2022-10-10T09:48:58.136Z,13.29
2022-10-10T09:51:25.413Z,13.27
2022-10-10T09:53:52.522Z,13.45
2022-10-10T09:56:29.521Z,13.47
2022-10-10T09:58:57.162Z,13.44
2022-10-10T10:01:29.155Z,13.52
2022-10-10T10:04:28.990Z,13.49
2022-10-10T10:07:06.786Z,13.58
2022-10-10T10:09:34.171Z,13.63
2022-10-10T10:12:01.646Z,13.69
2022-10-10T10:14:35.358Z,13.74
2022-10-10T10:17:25.042Z,13.77
2022-10-10T10:19:52.809Z,13.89
2022-10-10T10:22:37.786Z,13.98
2022-10-10T10:25:31.712Z,14.02
2022-10-10T10:28:11.344Z,14.01
2022-10-10T10:30:40.166Z,14.05
2022-10-10T10:37:05.364Z,14.23
2022-10-10T10:39:51.381Z,14.40
2022-10-10T10:42:30.521Z,14.47
2022-10-10T10:45:26.969Z,14.51
2022-10-10T10:48:32.658Z,14.56
2022-10-10T10:51:25.858Z,14.57
2022-10-10T10:54:26.619Z,14.56
2022-10-10T10:57:06.214Z,14.61
2022-10-10T11:00:25.614Z,14.65
2022-10-10T11:02:59.638Z,14.63
2022-10-10T11:05:55.806Z,14.71
2022-10-10T11:09:44.913Z,14.77
2022-10-10T11:12:10.438Z,14.81
2022-10-10T11:14:49.950Z,14.84
2022-10-10T11:17:38.967Z,14.87
2022-10-10T11:20:25.633Z,14.90
2022-10-10T11:23:18.929Z,14.97
2022-10-10T11:26:18.233Z,14.95
2022-10-10T11:28:54.888Z,15.00
2022-10-10T11:31:28.769Z,15.03
2022-10-10T11:34:07.427Z,15.11
2022-10-10T11:36:39.546Z,15.18
2022-10-10T11:39:30.788Z,15.26
2022-10-10T11:42:03.148Z,15.29
2022-10-10T11:45:00.038Z,15.30
2022-10-10T11:47:36.154Z,15.30
2022-10-10T11:50:14.032Z,15.31
2022-10-10T11:52:52.259Z,15.30
2022-10-10T11:55:37.618Z,15.31
2022-10-10T11:58:07.493Z,15.32
2022-10-10T12:00:40.939Z,15.26
2022-10-10T12:03:09.223Z,15.30
2022-10-10T12:05:40.088Z,15.39
2022-10-10T12:08:25.173Z,15.44
2022-10-10T12:11:18.958Z,15.46
2022-10-10T12:13:49.353Z,15.46
2022-10-10T12:16:19.767Z,15.50
2022-10-10T12:18:51.342Z,15.52
2022-10-10T12:21:22.940Z,15.56
2022-10-10T12:24:01.325Z,15.58
2022-10-10T12:26:57.136Z,15.55
2022-10-10T12:30:02.684Z,15.56
2022-10-10T12:32:55.111Z,15.59
2022-10-10T12:35:31.948Z,15.63
2022-10-10T12:38:10.652Z,15.69
2022-10-10T12:41:08.803Z,15.72
2022-10-10T12:44:11.001Z,15.75
2022-10-10T12:46:38.159Z,15.78
2022-10-10T12:49:24.832Z,15.79
2022-10-10T12:52:05.515Z,15.79
2022-10-10T12:54:39.330Z,15.85
2022-10-10T12:57:14.379Z,15.87
2022-10-10T12:59:42.038Z,15.93
2022-10-10T13:02:28.269Z,15.90
2022-10-10T13:04:59.593Z,15.90
2022-10-10T13:07:27.492Z,15.91
2022-10-10T13:10:03.664Z,15.90
2022-10-10T13:12:32.642Z,15.86
2022-10-10T13:14:59.873Z,15.76
2022-10-10T13:17:41.560Z,15.66
2022-10-10T13:20:43.883Z,15.57
2022-10-10T13:23:14.836Z,15.42
2022-10-10T13:25:46.342Z,15.37
2022-10-10T13:28:19.369Z,15.30
2022-10-10T13:30:47.554Z,15.24
2022-10-10T13:33:18.211Z,15.20
2022-10-10T13:35:47.675Z,15.00
2022-10-10T13:38:16.480Z,15.11
2022-10-10T13:40:44.829Z,15.10
2022-10-10T13:43:14.753Z,15.04
2022-10-10T13:45:47.825Z,15.06
2022-10-10T13:48:35.854Z,15.04
2022-10-10T13:51:09.110Z,15.03
2022-10-10T13:53:55.843Z,15.01
2022-10-10T13:56:31.701Z,15.00
2022-10-10T13:59:01.733Z,15.00
2022-10-10T14:01:33.227Z,14.84
2022-10-10T14:04:17.859Z,14.98
2022-10-10T14:06:55.551Z,14.97
2022-10-10T14:09:31.005Z,14.98
2022-10-10T14:12:02.667Z,14.96
2022-10-10T14:14:40.648Z,14.97
2022-10-10T14:17:10.477Z,14.94
2022-10-10T14:19:38.497Z,14.94
2022-10-10T14:22:05.523Z,14.92
2022-10-10T14:24:32.648Z,14.91
2022-10-10T14:27:27.092Z,14.88
2022-10-10T14:29:56.793Z,14.90
2022-10-10T14:32:24.628Z,14.89
2022-10-10T14:34:52.164Z,14.89
2022-10-10T14:37:23.700Z,14.90
2022-10-10T14:39:51.408Z,14.85
2022-10-10T14:42:19.967Z,14.89
2022-10-10T14:44:47.118Z,14.88
2022-10-10T14:47:22.891Z,14.87
2022-10-10T14:49:50.299Z,14.89
2022-10-10T14:52:17.446Z,14.86
2022-10-10T14:54:44.587Z,14.86
2022-10-10T14:57:15.088Z,14.85
2022-10-10T14:59:48.451Z,14.81
2022-10-10T15:02:18.807Z,14.78
2022-10-10T15:04:45.968Z,14.76
2022-10-10T15:07:14.725Z,14.74
2022-10-10T15:10:02.566Z,14.70
2022-10-10T15:12:32.143Z,14.60
2022-10-10T15:14:59.343Z,14.67
2022-10-10T15:17:27.366Z,14.58
2022-10-10T15:19:54.489Z,14.58
2022-10-10T15:22:21.809Z,14.54
2022-10-10T15:24:48.963Z,14.47
2022-10-10T15:27:16.107Z,14.47
2022-10-10T15:29:43.196Z,14.44
2022-10-10T15:32:10.418Z,14.39
2022-10-10T15:34:37.512Z,14.35
2022-10-10T15:37:04.741Z,14.24
2022-10-10T15:39:35.947Z,14.28
2022-10-10T15:42:09.570Z,14.15
2022-10-10T15:44:47.970Z,14.13
2022-10-10T15:47:16.530Z,14.15
2022-10-10T15:49:43.979Z,14.12
2022-10-10T15:52:11.346Z,14.08
2022-10-10T15:54:38.465Z,14.06
2022-10-10T15:57:05.609Z,14.02
2022-10-10T15:59:33.396Z,13.99
2022-10-10T16:02:01.672Z,13.93
2022-10-10T16:04:28.944Z,13.96
2022-10-10T16:09:43.646Z,13.89
2022-10-10T16:12:10.749Z,13.86
2022-10-10T16:14:37.785Z,13.81
2022-10-10T16:17:05.086Z,13.74
2022-10-10T16:19:32.164Z,13.75
2022-10-10T16:21:59.715Z,13.72
2022-10-10T16:24:26.864Z,13.64
2022-10-10T16:26:54.059Z,13.64
2022-10-10T16:29:21.173Z,13.61
2022-10-10T16:31:48.275Z,13.58
2022-10-10T16:34:16.212Z,13.55
2022-10-10T16:36:43.746Z,13.54
2022-10-10T16:39:12.621Z,13.52
2022-10-10T16:41:48.004Z,13.46
2022-10-10T16:44:16.372Z,13.48
2022-10-10T16:46:43.982Z,13.47
2022-10-10T16:49:13.220Z,13.45
2022-10-10T16:51:40.399Z,13.38
2022-10-10T16:54:07.777Z,13.27
2022-10-10T16:56:35.915Z,13.37
2022-10-10T16:59:03.867Z,13.32
2022-10-10T17:01:31.163Z,13.10
2022-10-10T17:04:00.306Z,13.14
2022-10-10T17:06:34.144Z,13.26
2022-10-10T17:09:03.340Z,13.21
2022-10-10T17:11:30.542Z,13.01
2022-10-10T17:13:57.836Z,13.16
2022-10-10T17:19:15.046Z,13.05
2022-10-10T17:21:42.384Z,13.15
2022-10-10T17:24:10.115Z,13.14
2022-10-10T17:26:37.502Z,12.94
2022-10-10T17:29:04.836Z,12.91
2022-10-10T17:31:32.201Z,13.12
2022-10-10T17:33:59.529Z,13.08
2022-10-10T17:36:27.971Z,13.11
2022-10-10T17:39:04.889Z,13.11
2022-10-10T17:41:33.631Z,13.10
2022-10-10T17:44:00.972Z,13.06
2022-10-10T17:46:34.887Z,13.06
2022-10-10T17:49:05.682Z,13.05
2022-10-10T17:51:33.106Z,13.04
2022-10-10T17:54:01.199Z,12.99
2022-10-10T17:56:29.037Z,13.02
2022-10-10T17:58:56.349Z,13.00
2022-10-10T18:01:23.709Z,12.96
2022-10-10T18:03:51.851Z,12.89
2022-10-10T18:06:22.527Z,12.44
2022-10-10T18:08:51.416Z,12.90
2022-10-10T18:11:22.128Z,12.62
2022-10-10T18:13:49.718Z,12.89
2022-10-10T18:16:20.144Z,12.79
2022-10-10T18:18:51.013Z,12.83
2022-10-10T18:21:22.329Z,12.79
2022-10-10T18:23:50.059Z,12.63
2022-10-10T18:26:23.722Z,12.76
2022-10-10T18:28:54.160Z,12.74
2022-10-10T18:31:22.402Z,12.70
2022-10-10T18:33:49.913Z,12.67
2022-10-10T18:36:20.530Z,12.67
2022-10-10T18:38:47.731Z,12.68
2022-10-10T18:41:18.189Z,12.65
2022-10-10T18:43:45.626Z,12.61
2022-10-10T18:46:15.537Z,12.59
2022-10-10T18:48:43.392Z,12.59
2022-10-10T18:51:17.334Z,12.57
2022-10-10T18:53:46.467Z,12.56
2022-10-10T18:56:15.494Z,12.55
2022-10-10T18:58:43.254Z,12.30
2022-10-10T19:01:12.451Z,12.53
2022-10-10T19:03:40.762Z,12.13
2022-10-10T19:06:11.186Z,12.00
2022-10-10T19:08:38.251Z,12.44
2022-10-10T19:11:07.256Z,12.41
2022-10-10T19:13:35.127Z,12.40
2022-10-10T19:16:07.212Z,12.37
2022-10-10T19:18:35.338Z,11.90
2022-10-10T19:21:04.904Z,12.36
2022-10-10T19:23:33.922Z,12.20
2022-10-10T19:26:07.307Z,12.31
2022-10-10T19:28:35.595Z,12.30
2022-10-10T19:31:08.673Z,12.30
2022-10-10T19:33:36.422Z,12.29
2022-10-10T19:36:06.093Z,12.17
2022-10-10T19:38:34.501Z,12.27
2022-10-10T19:41:02.564Z,11.97
2022-10-10T19:43:29.964Z,12.09
2022-10-10T19:45:57.090Z,12.26
2022-10-10T19:48:25.249Z,12.23
2022-10-10T19:50:54.107Z,12.09
2022-10-10T19:53:21.208Z,12.24
2022-10-10T19:55:59.127Z,12.00
2022-10-10T19:58:27.144Z,12.19
2022-10-10T20:00:54.623Z,12.18
2022-10-10T20:03:22.129Z,12.14
2022-10-10T20:05:49.474Z,11.97
2022-10-10T20:08:16.783Z,12.11
2022-10-10T20:10:44.874Z,12.10
2022-10-10T20:13:15.274Z,11.90
2022-10-10T20:15:42.772Z,12.04
2022-10-10T20:18:10.734Z,11.98
2022-10-10T20:20:48.144Z,12.01
2022-10-10T20:23:18.170Z,12.02
2022-10-10T20:25:45.935Z,11.95
2022-10-10T20:28:15.399Z,12.02
2022-10-10T20:30:45.473Z,11.98
2022-10-10T20:33:12.650Z,11.93
2022-10-10T20:35:39.853Z,11.74
2022-10-10T20:38:11.067Z,12.00
2022-10-10T20:40:47.343Z,11.79
2022-10-10T20:43:16.585Z,11.98
2022-10-10T20:45:43.742Z,11.77
2022-10-10T20:48:11.028Z,11.98
2022-10-10T20:50:38.513Z,11.99
2022-10-10T20:53:06.694Z,11.85
2022-10-10T20:55:34.382Z,12.01
2022-10-10T20:58:01.587Z,11.97
2022-10-10T21:00:28.700Z,11.96
2022-10-10T21:02:56.643Z,11.98
2022-10-10T21:05:24.204Z,11.98
2022-10-10T21:07:51.259Z,11.97
2022-10-10T21:10:18.443Z,12.00
2022-10-10T21:12:46.076Z,11.96
2022-10-10T21:15:13.184Z,11.98
2022-10-10T21:17:40.550Z,11.91
2022-10-10T21:20:08.384Z,11.95
2022-10-10T21:22:35.667Z,11.88
2022-10-10T21:25:03.109Z,11.78
2022-10-10T21:27:30.227Z,11.96
2022-10-10T21:29:57.396Z,11.77
2022-10-10T21:32:24.646Z,11.89
2022-10-10T21:34:56.245Z,11.86
2022-10-10T21:37:23.649Z,11.92
2022-10-10T21:39:50.861Z,11.94
2022-10-10T21:42:17.914Z,11.95
2022-10-10T21:44:45.190Z,11.77
2022-10-10T21:47:12.337Z,11.98
2022-10-10T21:49:39.404Z,12.01
2022-10-10T21:52:06.583Z,11.97
2022-10-10T21:54:33.743Z,11.70
2022-10-10T21:57:01.007Z,11.99
2022-10-10T21:59:31.917Z,11.77
2022-10-10T22:01:59.175Z,12.05
2022-10-10T22:04:29.027Z,12.05
2022-10-10T22:06:56.498Z,11.80
2022-10-10T22:09:23.546Z,11.98
2022-10-10T22:11:50.996Z,11.50
2022-10-10T22:14:18.352Z,11.92
2022-10-10T22:16:45.677Z,12.02
2022-10-10T22:19:12.797Z,12.03
2022-10-10T22:21:40.088Z,11.95
2022-10-10T22:24:08.253Z,12.03
2022-10-10T22:26:35.930Z,12.03
2022-10-10T22:29:04.048Z,11.89
2022-10-10T22:31:31.209Z,11.98
2022-10-10T22:33:58.513Z,12.01
2022-10-10T22:36:25.784Z,12.01
2022-10-10T22:38:52.889Z,11.58
2022-10-10T22:41:20.085Z,11.80
2022-10-10T22:43:47.780Z,11.72
2022-10-10T22:46:14.826Z,11.96
2022-10-10T22:48:42.013Z,11.68
2022-10-10T22:51:12.965Z,11.94
2022-10-10T22:53:41.475Z,11.65
2022-10-10T22:56:09.666Z,11.98
2022-10-10T22:58:37.032Z,11.98
2022-10-10T23:01:15.137Z,12.01
2022-10-10T23:03:42.865Z,11.93
2022-10-10T23:06:10.066Z,11.91
2022-10-10T23:08:37.344Z,11.96
2022-10-10T23:11:04.967Z,11.96
2022-10-10T23:13:32.930Z,11.97
2022-10-10T23:16:00.103Z,11.94
2022-10-10T23:18:29.173Z,11.89
2022-10-10T23:20:56.816Z,11.84
2022-10-10T23:23:25.963Z,11.73
2022-10-10T23:25:53.045Z,11.72
2022-10-10T23:28:20.214Z,11.81
2022-10-10T23:30:48.512Z,11.66
2022-10-10T23:33:17.071Z,11.75
2022-10-10T23:35:44.205Z,11.78
2022-10-10T23:38:11.715Z,11.80
2022-10-10T23:40:38.847Z,11.68
2022-10-10T23:43:07.605Z,11.78
2022-10-10T23:45:34.892Z,11.74
2022-10-10T23:48:02.118Z,11.19
2022-10-10T23:50:29.737Z,11.70
2022-10-10T23:52:56.873Z,11.56
2022-10-10T23:55:24.349Z,11.68
2022-10-10T23:57:51.533Z,11.66
